Time;durP1;ratioP1;P1;durP2;ratioP2;P2;SDS_P1;SDS_P2;PMS_P1;PMS_P2;Temp;Humidity;BMP_temperature;BMP_pressure;BME280_temperature;BME280_humidity;BME280_pressure;Samples;Min_cycle;Max_cycle;Signal;HPM_P1;HPM_P2
2023/05/14 00:02:13;;;;;;;2.95;1.52;;;;;;;16.50;38.27;99473.63;4903482;29;20035;-81
2023/05/14 00:04:39;;;;;;;3.30;1.73;;;;;;;16.50;38.23;99479.72;4919277;29;20035;-81
2023/05/14 00:07:05;;;;;;;1.90;1.27;;;;;;;16.50;38.20;99474.47;4903410;29;20047;-81
2023/05/14 00:09:31;;;;;;;2.33;1.50;;;;;;;16.51;38.39;99470.00;4936160;29;20047;-81
2023/05/14 00:11:57;;;;;;;1.73;1.20;;;;;;;16.51;38.32;99467.38;4919419;28;20254;-82
2023/05/14 00:14:22;;;;;;;3.08;1.50;;;;;;;16.50;38.48;99468.38;4922391;29;20059;-81
2023/05/14 00:16:48;;;;;;;2.50;1.52;;;;;;;16.49;38.35;99467.50;4922629;29;20035;-81
2023/05/14 00:19:13;;;;;;;4.70;1.40;;;;;;;16.50;38.39;99457.81;4919250;29;20114;-81
2023/05/14 00:21:39;;;;;;;2.60;1.42;;;;;;;16.49;38.37;99458.78;4903538;29;20062;-81
2023/05/14 00:24:05;;;;;;;3.08;1.25;;;;;;;16.46;38.60;99454.59;4888069;29;20044;-81
2023/05/14 00:26:30;;;;;;;3.65;1.50;;;;;;;16.45;38.49;99448.53;4919239;29;20480;-81
2023/05/14 00:28:56;;;;;;;2.83;1.60;;;;;;;16.44;38.31;99451.28;4919511;29;20035;-81
2023/05/14 00:31:21;;;;;;;6.28;1.67;;;;;;;16.42;38.51;99453.25;4903721;29;20099;-81
2023/05/14 00:33:47;;;;;;;2.20;1.45;;;;;;;16.46;38.42;99459.88;4903336;29;20115;-81
2023/05/14 00:36:12;;;;;;;4.78;1.58;;;;;;;16.45;38.62;99450.31;4919052;29;20039;-81
2023/05/14 00:38:38;;;;;;;3.17;1.30;;;;;;;16.46;38.76;99444.06;4918886;29;20051;-81
2023/05/14 00:41:03;;;;;;;3.97;1.63;;;;;;;16.44;38.77;99446.03;4918444;29;20102;-81
2023/05/14 00:43:30;;;;;;;2.65;1.42;;;;;;;16.43;38.92;99442.56;4918598;29;20035;-81
2023/05/14 00:45:56;;;;;;;3.45;1.50;;;;;;;16.38;38.89;99439.50;4919402;29;20420;-81
2023/05/14 00:48:21;;;;;;;2.90;1.33;;;;;;;16.36;38.95;99427.44;4918937;29;20043;-81
2023/05/14 00:50:48;;;;;;;2.60;1.30;;;;;;;16.41;39.10;99441.88;4935879;29;20498;-81
2023/05/14 00:53:13;;;;;;;4.25;1.60;;;;;;;16.38;39.09;99444.78;4903010;29;20427;-81
2023/05/14 00:55:41;;;;;;;3.17;1.60;;;;;;;16.35;39.22;99434.50;4902506;29;20043;-80
2023/05/14 00:58:09;;;;;;;5.65;1.58;;;;;;;16.35;39.07;99434.50;4918291;29;20044;-80
2023/05/14 01:00:35;;;;;;;;;;;;;;;16.37;39.13;99437.84;4919553;29;20041;-81
2023/05/14 01:03:03;;;;;;;4.07;1.30;;;;;;;16.31;39.48;99430.47;4918677;29;19917;-80
2023/05/14 01:05:32;;;;;;;3.35;1.45;;;;;;;16.33;39.47;99432.97;4918778;29;20059;-80
2023/05/14 01:08:22;;;;;;;2.20;1.40;;;;;;;16.27;39.50;99422.03;4918524;29;20047;-81
2023/05/14 01:10:51;;;;;;;3.13;1.40;;;;;;;16.30;39.49;99422.72;4882793;29;20056;-80
2023/05/14 01:13:43;;;;;;;2.83;1.30;;;;;;;16.27;39.62;99416.75;4864006;29;20100;-81
2023/05/14 01:16:12;;;;;;;3.00;1.52;;;;;;;16.22;39.60;99421.56;4880657;29;20548;-80
2023/05/14 01:18:37;;;;;;;6.20;1.65;;;;;;;16.26;39.74;99420.34;4876616;29;20428;-81
2023/05/14 01:21:03;;;;;;;1.95;1.15;;;;;;;16.22;39.79;99418.13;4860937;29;20040;-80
2023/05/14 01:23:29;;;;;;;2.47;1.40;;;;;;;16.21;39.37;99412.03;4876550;29;20045;-81
2023/05/14 01:25:54;;;;;;;2.78;1.50;;;;;;;16.17;39.85;99408.00;4861277;29;20045;-79
2023/05/14 01:28:26;;;;;;;1.88;1.40;;;;;;;16.16;39.75;99406.34;4861105;29;20080;-80
2023/05/14 01:30:56;;;;;;;2.15;1.30;;;;;;;16.16;39.90;99408.13;4861086;29;20541;-80
2023/05/14 01:33:21;;;;;;;3.22;1.40;;;;;;;16.17;40.07;99413.25;4860968;29;20041;-80
2023/05/14 01:35:47;;;;;;;2.20;1.38;;;;;;;16.16;40.20;99408.13;4845608;29;20489;-80
2023/05/14 01:38:14;;;;;;;2.90;1.50;;;;;;;16.14;40.13;99405.63;4876454;29;20508;-80
2023/05/14 01:40:39;;;;;;;4.70;1.35;;;;;;;16.07;40.15;99392.19;4861087;29;20081;-80
2023/05/14 01:43:05;;;;;;;4.65;1.45;;;;;;;16.12;40.01;99402.31;4845302;29;20041;-81
2023/05/14 01:45:30;;;;;;;2.05;1.45;;;;;;;16.09;40.14;99395.50;4861120;29;20052;-82
2023/05/14 01:47:56;;;;;;;2.78;1.30;;;;;;;16.09;40.09;99395.50;4899477;29;20078;-82
2023/05/14 01:50:22;;;;;;;1.88;1.50;;;;;;;16.04;40.09;99389.00;4902285;29;20126;-82
2023/05/14 01:52:47;;;;;;;2.30;1.35;;;;;;;16.04;40.18;99391.63;4902304;29;20051;-82
2023/05/14 01:55:14;;;;;;;3.63;1.42;;;;;;;16.07;40.06;99404.53;4920249;29;20079;-82
2023/05/14 01:57:39;;;;;;;3.25;1.40;;;;;;;16.00;40.18;99395.50;4921947;29;20031;-83
2023/05/14 02:00:05;;;;;;;2.97;1.40;;;;;;;16.02;40.15;99396.19;4921937;29;20067;-82
2023/05/14 02:02:31;;;;;;;4.13;1.40;;;;;;;15.99;40.09;99393.84;4921192;29;20071;-82
2023/05/14 02:04:56;;;;;;;2.90;1.30;;;;;;;15.96;40.28;99392.31;4904576;29;20505;-82
2023/05/14 02:07:22;;;;;;;2.40;1.38;;;;;;;15.97;40.33;99393.13;4908157;29;20039;-82
2023/05/14 02:09:47;;;;;;;2.47;1.45;;;;;;;15.96;40.19;99405.47;4940135;29;20078;-82
2023/05/14 02:12:13;;;;;;;2.50;1.20;;;;;;;15.93;40.12;99400.47;4956964;29;20062;-82
2023/05/14 02:14:38;;;;;;;2.10;1.33;;;;;;;15.89;40.36;99388.53;4940562;29;20039;-82
2023/05/14 02:17:04;;;;;;;2.53;1.40;;;;;;;15.89;40.36;99388.53;4908783;29;20043;-82
2023/05/14 02:19:29;;;;;;;3.05;1.35;;;;;;;15.87;40.22;99393.94;4924496;29;20554;-82
2023/05/14 02:21:55;;;;;;;2.30;1.58;;;;;;;15.87;40.30;99399.19;4958116;29;20494;-82
2023/05/14 02:24:20;;;;;;;2.90;1.30;;;;;;;15.80;40.19;99387.56;4926053;29;20048;-82
2023/05/14 02:26:46;;;;;;;2.50;1.60;;;;;;;15.84;40.21;99390.75;4905991;29;20047;-82
2023/05/14 02:29:12;;;;;;;2.88;1.40;;;;;;;15.81;40.17;99389.19;4905875;29;20047;-80
2023/05/14 02:31:38;;;;;;;3.70;1.48;;;;;;;15.80;40.17;99381.47;4906055;29;20032;-80
2023/05/14 02:34:04;;;;;;;2.90;1.55;;;;;;;15.79;40.02;99395.59;4905394;29;20036;-79
2023/05/14 02:36:29;;;;;;;4.88;1.52;;;;;;;15.77;39.99;99392.28;4921290;29;20027;-83
2023/05/14 02:38:56;;;;;;;2.33;1.30;;;;;;;15.78;39.94;99412.34;4890289;29;20138;-85
2023/05/14 02:41:21;;;;;;;1.95;1.52;;;;;;;15.74;40.00;99407.31;4921299;29;20407;-84
2023/05/14 02:43:46;;;;;;;2.25;1.48;;;;;;;15.76;40.03;99411.63;4905427;29;20047;-83
2023/05/14 02:46:12;;;;;;;2.45;1.27;;;;;;;15.74;39.95;99412.56;4920936;29;20040;-84
2023/05/14 02:48:37;;;;;;;3.08;1.17;;;;;;;15.73;39.83;99412.72;4905039;29;20087;-82
2023/05/14 02:51:03;;;;;;;2.08;1.20;;;;;;;15.74;40.00;99411.75;4938579;29;20036;-84
2023/05/14 02:53:28;;;;;;;3.35;1.38;;;;;;;15.72;39.96;99401.34;4905296;29;20089;-83
2023/05/14 02:55:54;;;;;;;2.20;1.33;;;;;;;15.74;40.03;99417.84;4920923;29;20407;-83
2023/05/14 02:58:20;;;;;;;2.17;1.40;;;;;;;15.72;39.90;99422.41;4937737;29;20040;-83
2023/05/14 03:00:45;;;;;;;2.05;1.23;;;;;;;15.76;39.99;99425.59;4904962;29;20099;-83
2023/05/14 03:03:11;;;;;;;2.17;1.58;;;;;;;15.74;39.94;99417.00;4906847;28;20044;-85
2023/05/14 03:05:36;;;;;;;1.70;1.30;;;;;;;15.75;40.01;99418.69;4958491;28;20054;-83
2023/05/14 03:08:02;;;;;;;2.75;1.50;;;;;;;15.79;39.83;99422.72;4927229;28;20034;-83
2023/05/14 03:10:27;;;;;;;2.20;1.20;;;;;;;15.89;39.72;99430.66;4959015;28;20055;-85
2023/05/14 03:12:53;;;;;;;3.90;1.55;;;;;;;15.97;39.69;99424.72;4958255;28;20051;-86
2023/05/14 03:15:18;;;;;;;3.00;1.60;;;;;;;15.94;39.68;99433.75;4958588;28;20038;-83
2023/05/14 03:17:44;;;;;;;3.15;1.55;;;;;;;15.93;39.74;99434.69;4958347;28;20505;-84
2023/05/14 03:20:10;;;;;;;2.55;1.45;;;;;;;15.96;39.88;99436.25;4942954;28;20042;-84
2023/05/14 03:22:36;;;;;;;3.50;1.60;;;;;;;15.96;39.90;99447.59;4942638;28;20038;-84
2023/05/14 03:25:01;;;;;;;2.85;1.42;;;;;;;15.98;39.84;99450.09;4926113;28;20058;-83
2023/05/14 03:27:27;;;;;;;3.55;1.50;;;;;;;15.97;39.75;99444.00;4942411;28;20061;-84
2023/05/14 03:29:52;;;;;;;4.38;1.50;;;;;;;15.98;39.55;99447.47;4958747;28;20034;-83
2023/05/14 03:32:18;;;;;;;1.92;1.40;;;;;;;15.96;39.57;99444.16;4958906;28;20082;-83
2023/05/14 03:34:43;;;;;;;2.40;1.40;;;;;;;16.03;39.55;99442.63;4942110;28;20038;-85
2023/05/14 03:37:09;;;;;;;3.50;1.45;;;;;;;16.07;39.55;99436.94;4926441;28;20046;-85
2023/05/14 03:39:35;;;;;;;3.78;1.35;;;;;;;16.09;39.39;99432.38;4958516;28;20117;-85
2023/05/14 03:42:00;;;;;;;2.60;1.60;;;;;;;16.13;39.43;99429.47;4958371;28;20043;-85
2023/05/14 03:44:26;;;;;;;2.42;1.60;;;;;;;16.24;39.26;99434.63;4957872;28;20039;-85
2023/05/14 03:46:51;;;;;;;2.88;1.63;;;;;;;16.28;39.23;99439.47;4958754;28;20038;-85
2023/05/14 03:49:17;;;;;;;3.88;1.77;;;;;;;16.37;38.84;99432.56;4958280;28;20047;-85
2023/05/14 03:51:43;;;;;;;4.60;1.80;;;;;;;16.57;38.55;99446.59;4926178;28;20218;-85
2023/05/14 03:54:08;;;;;;;3.45;1.60;;;;;;;16.73;38.50;99447.81;4975108;28;20073;-82
2023/05/14 03:56:34;;;;;;;2.30;1.60;;;;;;;16.82;38.32;99455.75;4942020;28;20486;-82
2023/05/14 03:59:00;;;;;;;4.82;1.73;;;;;;;16.92;38.16;99465.47;4975003;28;20101;-82
2023/05/14 04:01:25;;;;;;;5.72;1.60;;;;;;;16.98;38.24;99475.47;4957423;28;20446;-83
2023/05/14 04:03:50;;;;;;;3.08;1.45;;;;;;;17.04;38.23;99476.72;4936642;29;20039;-83
2023/05/14 04:06:16;;;;;;;3.15;1.52;;;;;;;17.12;38.04;99474.22;4906726;29;20047;-82
2023/05/14 04:08:41;;;;;;;3.38;1.58;;;;;;;17.21;37.62;99467.25;4923145;29;20039;-82
2023/05/14 04:11:07;;;;;;;3.90;1.70;;;;;;;17.27;37.75;99462.25;4906731;29;20473;-83
2023/05/14 04:13:32;;;;;;;6.18;1.90;;;;;;;17.50;37.25;99457.44;4906793;29;20051;-83
2023/05/14 04:15:58;;;;;;;4.50;1.75;;;;;;;17.78;36.90;99457.50;4922165;29;20482;-82
2023/05/14 04:18:24;;;;;;;3.88;1.67;;;;;;;18.16;35.92;99455.66;4920210;29;20040;-84
2023/05/14 04:20:49;;;;;;;2.63;1.60;;;;;;;18.54;35.20;99456.38;4903718;29;20047;-83
2023/05/14 04:23:15;;;;;;;2.95;1.63;;;;;;;19.04;34.32;99448.88;4931343;29;20051;-83
2023/05/14 04:25:40;;;;;;;3.38;1.80;;;;;;;19.89;32.72;99449.06;4922666;29;20034;-82
2023/05/14 04:28:06;;;;;;;3.78;1.77;;;;;;;20.73;31.28;99449.94;4954505;29;20098;-88
2023/05/14 04:30:31;;;;;;;6.05;2.00;;;;;;;22.19;29.07;99448.09;4923013;29;20039;-88
2023/05/14 04:32:57;;;;;;;3.15;1.65;;;;;;;23.66;26.97;99447.91;4970701;28;20051;-89
2023/05/14 04:35:23;;;;;;;4.10;1.75;;;;;;;24.92;25.20;99452.97;4938574;29;20039;-76
2023/05/14 04:37:49;;;;;;;4.82;1.60;;;;;;;25.86;23.82;99461.66;4921396;29;20134;-78
2023/05/14 04:40:17;;;;;;;3.45;1.80;;;;;;;26.38;23.15;99456.69;4954837;29;20506;-76
2023/05/14 04:42:43;;;;;;;5.38;1.92;;;;;;;26.51;22.91;99449.50;4968919;28;20091;-83
2023/05/14 04:45:09;;;;;;;4.28;1.90;;;;;;;26.76;22.43;99438.25;4954005;29;20070;-84
2023/05/14 04:47:35;;;;;;;2.97;1.63;;;;;;;26.70;22.62;99455.13;4937266;29;20062;-83
2023/05/14 04:50:03;;;;;;;6.90;1.75;;;;;;;26.42;23.80;99448.03;4969828;28;20126;-77
2023/05/14 04:52:28;;;;;;;5.47;1.70;;;;;;;26.39;23.59;99448.44;4921767;29;20133;-81
2023/05/14 04:54:55;;;;;;;5.30;1.60;;;;;;;26.33;23.41;99441.25;4969783;28;20039;-79
2023/05/14 04:57:21;;;;;;;7.95;1.70;;;;;;;27.27;22.28;99440.25;4936800;29;20053;-78
2023/05/14 04:59:46;;;;;;;3.80;1.63;;;;;;;27.89;21.92;99439.91;4969060;28;20118;-80
2023/05/14 05:02:12;;;;;;;5.85;1.60;;;;;;;27.71;21.79;99439.78;4953500;29;20043;-78
2023/05/14 05:04:38;;;;;;;4.32;1.55;;;;;;;28.02;23.45;99447.09;4946977;29;20054;-75
2023/05/14 05:07:04;;;;;;;17.40;1.50;;;;;;;28.41;26.10;99449.78;4921400;29;20126;-74
2023/05/14 05:09:30;;;;;;;8.70;1.77;;;;;;;28.53;26.34;99442.69;4905693;29;20039;-76
2023/05/14 05:11:55;;;;;;;6.20;1.60;;;;;;;28.30;26.26;99451.28;4905473;29;20121;-75
2023/05/14 05:14:21;;;;;;;7.47;1.50;;;;;;;27.99;26.23;99455.59;4936592;29;20040;-75
2023/05/14 05:16:47;;;;;;;4.25;1.40;;;;;;;27.72;26.32;99458.34;4921739;29;20063;-78
2023/05/14 05:19:13;;;;;;;8.32;1.60;;;;;;;27.67;24.80;99460.00;4905699;29;20130;-78
2023/05/14 05:21:39;;;;;;;7.18;1.63;;;;;;;27.57;24.32;99461.25;4937281;29;20416;-78
2023/05/14 05:24:06;;;;;;;6.82;1.75;;;;;;;28.06;22.76;99461.75;4936838;29;20036;-77
2023/05/14 05:26:32;;;;;;;5.68;1.50;;;;;;;27.45;24.92;99473.66;4952663;28;20173;-76
2023/05/14 05:28:57;;;;;;;5.18;1.75;;;;;;;26.78;26.51;99483.56;4953478;28;20447;-78
2023/05/14 05:31:22;;;;;;;4.68;1.70;;;;;;;26.37;26.94;99504.03;4920978;29;20557;-76
2023/05/14 05:33:48;;;;;;;3.75;1.75;;;;;;;26.01;27.63;99502.47;4936834;29;20027;-78
2023/05/14 05:36:13;;;;;;;4.30;1.60;;;;;;;25.59;27.37;99498.94;4953223;29;20035;-78
2023/05/14 05:38:39;;;;;;;4.07;1.83;;;;;;;24.98;28.21;99494.13;4953074;29;20103;-76
2023/05/14 05:41:05;;;;;;;3.10;1.60;;;;;;;24.85;28.59;99498.31;4936864;29;20533;-77
2023/05/14 05:43:33;;;;;;;8.88;2.20;;;;;;;24.90;27.02;99495.91;4960115;29;20040;-77
2023/05/14 05:46:01;;;;;;;8.00;1.90;;;;;;;25.57;25.32;99504.47;4955530;28;20043;-80
2023/05/14 05:48:36;;;;;;;7.38;2.13;;;;;;;26.74;23.95;99504.59;4937690;29;20494;-80
2023/05/14 05:51:02;;;;;;;6.30;1.90;;;;;;;26.70;23.88;99487.28;4921875;29;20442;-77
2023/05/14 05:53:28;;;;;;;7.15;1.80;;;;;;;27.32;23.61;99495.94;4921056;29;20036;-80
2023/05/14 05:55:59;;;;;;;4.55;1.80;;;;;;;27.28;23.68;99500.06;4937018;29;20054;-83
2023/05/14 05:58:25;;;;;;;4.55;2.13;;;;;;;28.90;22.12;99495.78;4937111;29;20035;-80
2023/05/14 06:00:50;;;;;;;4.30;1.88;;;;;;;29.35;21.55;99474.94;4936898;29;20106;-79
2023/05/14 06:03:17;;;;;;;3.20;1.60;;;;;;;29.62;20.83;99484.56;4937387;29;20035;-82
2023/05/14 06:05:45;;;;;;;3.85;1.50;;;;;;;29.25;20.89;99490.72;4953073;28;20054;-80
2023/05/14 06:08:11;;;;;;;5.40;1.63;;;;;;;28.64;21.46;99506.47;4921709;29;20063;-81
2023/05/14 06:10:38;;;;;;;6.05;1.80;;;;;;;28.03;21.74;99529.25;4955073;29;20127;-77
2023/05/14 06:13:05;;;;;;;9.63;1.77;;;;;;;27.42;23.11;99525.00;4970493;28;20517;-79
2023/05/14 06:15:32;;;;;;;5.82;1.52;;;;;;;26.96;23.05;99515.09;4923003;29;20039;-79
2023/05/14 06:17:58;;;;;;;6.43;1.83;;;;;;;26.51;26.85;99512.94;4938102;29;20047;-79
2023/05/14 06:20:23;;;;;;;7.93;1.55;;;;;;;26.13;27.30;99519.59;4938197;29;20270;-77
2023/05/14 06:22:49;;;;;;;7.07;1.63;;;;;;;25.85;28.04;99518.81;4937547;29;20035;-79
2023/05/14 06:25:14;;;;;;;7.28;1.70;;;;;;;25.40;29.33;99511.97;4935893;29;20054;-77
2023/05/14 06:27:41;;;;;;;4.32;1.70;;;;;;;25.06;29.92;99516.19;4952303;29;20059;-77
2023/05/14 06:30:07;;;;;;;5.22;1.90;;;;;;;24.69;31.02;99511.94;4936506;29;20039;-77
2023/05/14 06:32:33;;;;;;;12.15;2.10;;;;;;;24.45;29.25;99518.41;4952326;28;20042;-76
2023/05/14 06:34:59;;;;;;;7.88;1.90;;;;;;;24.02;30.94;99521.78;4953927;29;20047;-77
2023/05/14 06:37:25;;;;;;;10.65;1.77;;;;;;;23.75;31.72;99516.09;4968158;28;20039;-75
2023/05/14 06:39:51;;;;;;;5.75;1.70;;;;;;;23.57;32.24;99519.09;4946965;28;20131;-78
2023/05/14 06:42:17;;;;;;;10.18;2.03;;;;;;;23.42;32.68;99518.25;4907015;29;20574;-78
2023/05/14 06:44:44;;;;;;;3.95;1.65;;;;;;;23.27;33.03;99502.25;4908677;29;20058;-76
2023/05/14 06:47:09;;;;;;;6.72;1.70;;;;;;;23.24;33.58;99519.41;4939653;28;20139;-78
2023/05/14 06:49:36;;;;;;;5.22;1.90;;;;;;;23.05;33.91;99531.34;4924258;29;20098;-76
2023/05/14 06:52:06;;;;;;;8.75;1.80;;;;;;;23.08;33.81;99527.53;4908693;29;20041;-81
2023/05/14 06:54:32;;;;;;;6.93;1.70;;;;;;;23.15;33.71;99528.50;4953879;28;20042;-76
2023/05/14 06:56:59;;;;;;;7.20;1.90;;;;;;;23.19;33.37;99529.78;4907782;29;20434;-78
2023/05/14 06:59:25;;;;;;;6.68;1.90;;;;;;;23.11;32.98;99529.84;4939470;29;20489;-76
2023/05/14 07:01:51;;;;;;;13.23;2.05;;;;;;;23.15;33.79;99535.63;4923393;29;20047;-76
2023/05/14 07:04:17;;;;;;;7.22;1.58;;;;;;;23.08;33.35;99547.00;4908680;29;20509;-78
2023/05/14 07:06:43;;;;;;;7.32;2.00;;;;;;;22.97;33.71;99552.72;4908333;29;20047;-78
2023/05/14 07:09:20;;;;;;;10.38;1.88;;;;;;;22.91;33.87;99546.28;4909654;29;20059;-81
2023/05/14 07:11:46;;;;;;;3.60;1.60;;;;;;;22.79;33.86;99538.88;4921362;29;20052;-79
2023/05/14 07:14:11;;;;;;;4.53;1.67;;;;;;;22.76;33.83;99542.72;4901890;29;20047;-79
2023/05/14 07:16:39;;;;;;;7.95;1.80;;;;;;;22.57;33.58;99538.69;4920617;29;20055;-82
2023/05/14 07:19:04;;;;;;;7.13;1.83;;;;;;;22.45;34.32;99532.09;4951181;28;20039;-80
2023/05/14 07:21:35;;;;;;;12.05;2.00;;;;;;;22.44;34.78;99546.38;4922894;29;20074;-78
2023/05/14 07:24:01;;;;;;;5.20;1.80;;;;;;;22.31;34.98;99554.94;4923128;29;20039;-77
2023/05/14 07:26:26;;;;;;;6.22;1.45;;;;;;;22.18;34.87;99553.63;4927093;29;20073;-80
2023/05/14 07:28:52;;;;;;;5.05;1.58;;;;;;;22.09;36.68;99552.00;4908636;29;20035;-80
2023/05/14 07:31:19;;;;;;;6.57;1.98;;;;;;;22.04;36.48;99557.00;4939494;29;20133;-81
2023/05/14 07:33:57;;;;;;;5.75;1.60;;;;;;;21.93;36.76;99542.22;4924121;29;20046;-83
2023/05/14 07:36:31;;;;;;;9.93;2.15;;;;;;;21.95;35.99;99553.53;4943695;29;20506;-86
2023/05/14 07:39:18;;;;;;;8.73;2.50;;;;;;;21.91;35.40;99554.06;4909258;29;20054;-82
2023/05/14 07:41:55;;;;;;;8.38;2.20;;;;;;;21.92;35.73;99561.88;4930710;29;20046;-83
2023/05/14 07:44:31;;;;;;;7.78;2.20;;;;;;;21.96;34.89;99562.34;4931551;29;20111;-86
2023/05/14 07:46:57;;;;;;;6.70;2.22;;;;;;;22.02;35.27;99562.47;4909179;29;20396;-81
2023/05/14 07:49:22;;;;;;;191.68;30.08;;;;;;;22.05;38.28;99564.78;4920662;29;20047;-80
2023/05/14 07:51:48;;;;;;;469.63;55.88;;;;;;;22.11;39.83;99570.44;4903385;29;20134;-81
2023/05/14 07:54:13;;;;;;;245.27;30.88;;;;;;;22.17;41.99;99569.75;4889638;29;20191;-73
2023/05/14 07:56:39;;;;;;;156.25;21.60;;;;;;;22.26;45.96;99566.06;4903909;29;20039;-78
2023/05/14 07:59:06;;;;;;;111.88;16.40;;;;;;;22.35;47.29;99570.38;4904030;29;20127;-79
2023/05/14 08:01:31;;;;;;;80.70;13.35;;;;;;;22.39;45.14;99561.06;4888429;29;20047;-79
2023/05/14 08:03:57;;;;;;;57.15;9.85;;;;;;;22.47;42.69;99562.00;4903020;29;20055;-79
2023/05/14 08:06:26;;;;;;;48.00;8.85;;;;;;;22.55;45.01;99557.47;4919253;29;20035;-79
2023/05/14 08:08:52;;;;;;;36.83;7.22;;;;;;;22.72;42.31;99562.69;4903975;29;20091;-73
2023/05/14 08:11:18;;;;;;;37.33;7.72;;;;;;;22.83;39.95;99564.94;4935530;29;20040;-75
2023/05/14 08:13:45;;;;;;;32.35;6.68;;;;;;;22.91;39.34;99566.72;4903163;29;20047;-77
2023/05/14 08:16:11;;;;;;;28.73;6.40;;;;;;;23.00;40.02;99562.19;4918772;29;20126;-80
2023/05/14 08:18:37;;;;;;;31.27;6.25;;;;;;;23.10;40.99;99568.13;4915191;28;20509;-82
2023/05/14 08:21:03;;;;;;;27.42;6.38;;;;;;;23.17;41.96;99569.09;4922764;29;20051;-81
2023/05/14 08:23:28;;;;;;;26.38;6.25;;;;;;;23.25;43.45;99568.19;4937595;29;20039;-87
2023/05/14 08:25:54;;;;;;;26.77;5.88;;;;;;;23.29;44.72;99567.66;4961172;28;20038;-89
2023/05/14 08:28:21;;;;;;;22.35;6.07;;;;;;;23.28;46.24;99562.50;5046164;23;20051;-85
2023/05/14 08:30:50;;;;;;;26.33;5.40;;;;;;;23.39;46.72;99572.72;5240631;23;20054;-82
2023/05/14 08:33:20;;;;;;;26.88;8.15;;;;;;;23.52;60.77;99580.09;5094929;23;20063;-87
2023/05/14 08:35:53;;;;;;;17.60;5.28;;;;;;;23.57;49.06;99575.06;4939781;29;20052;-83
2023/05/14 08:38:19;;;;;;;22.80;5.50;;;;;;;23.61;58.85;99565.69;4923305;29;20052;-83
2023/05/14 08:41:04;;;;;;;16.08;4.07;;;;;;;23.69;50.55;99574.63;4964543;23;20071;-81
2023/05/14 08:43:44;;;;;;;15.80;3.97;;;;;;;23.69;48.48;99563.94;4952098;29;20038;-78
2023/05/14 08:46:13;;;;;;;21.38;4.35;;;;;;;23.74;47.95;99567.75;4975121;28;20054;-84
2023/05/14 08:49:04;;;;;;;15.57;4.10;;;;;;;23.84;47.43;99570.97;4972737;28;20038;-89
2023/05/14 08:52:08;;;;;;;12.60;3.20;;;;;;;23.89;46.65;99562.44;4973470;28;20046;-87
2023/05/14 08:54:59;;;;;;;8.15;3.28;;;;;;;24.01;46.01;99584.97;4963963;29;20079;-89
2023/05/14 08:57:48;;;;;;;11.85;3.13;;;;;;;24.00;45.45;99591.34;4933858;29;20036;-91
2023/05/14 09:00:41;;;;;;;9.90;2.65;;;;;;;23.93;44.79;99590.41;4906513;29;20120;-90
2023/05/14 09:42:35;;;;;;;5.38;2.40;;;;;;;21.39;44.02;99595.09;3199174;26;20048;-81
2023/05/14 09:45:03;;;;;;;4.95;2.40;;;;;;;21.26;44.27;99588.47;4935989;29;20043;-81
2023/05/14 09:47:32;;;;;;;6.78;2.60;;;;;;;21.16;44.73;99587.81;4918759;29;20118;-83
2023/05/14 09:49:58;;;;;;;6.05;2.40;;;;;;;21.06;45.51;99587.97;4903597;29;20044;-82
2023/05/14 09:52:23;;;;;;;7.78;2.10;;;;;;;20.97;45.60;99586.28;4886973;29;20051;-81
2023/05/14 09:54:52;;;;;;;5.22;2.15;;;;;;;20.91;45.97;99579.78;4918656;29;20507;-82
2023/05/14 09:57:20;;;;;;;5.13;2.30;;;;;;;20.86;46.14;99576.81;4918795;29;20044;-83
2023/05/14 09:59:45;;;;;;;8.70;2.42;;;;;;;20.86;46.74;99570.66;4918779;29;20100;-82
2023/05/14 10:02:21;;;;;;;9.82;2.60;;;;;;;20.84;47.53;99568.19;4918330;29;20040;-81
2023/05/14 10:04:52;;;;;;;4.43;2.38;;;;;;;20.89;47.20;99565.88;4919225;29;20090;-82
2023/05/14 10:07:21;;;;;;;5.15;2.40;;;;;;;20.90;47.10;99551.59;4918716;29;20149;-83
2023/05/14 10:09:46;;;;;;;4.13;2.40;;;;;;;20.98;46.84;99556.09;4902176;29;20623;-80
2023/05/14 10:12:12;;;;;;;12.05;2.70;;;;;;;21.12;50.29;99552.78;4917750;29;20531;-77
2023/05/14 10:14:43;;;;;;;25.30;3.10;;;;;;;21.35;50.37;99560.09;4901280;29;20134;-81
2023/05/14 10:17:16;;;;;;;19.88;3.03;;;;;;;21.41;50.31;99554.13;4893215;29;20452;-88
2023/05/14 10:19:44;;;;;;;14.52;2.97;;;;;;;21.50;50.20;99552.28;4892954;29;20043;-81
2023/05/14 10:22:11;;;;;;;13.48;4.38;;;;;;;21.55;50.00;99536.69;4920103;29;20053;-81
2023/05/14 10:24:37;;;;;;;9.35;3.80;;;;;;;21.59;49.87;99522.06;4904078;29;20032;-81
2023/05/14 10:27:04;;;;;;;12.85;3.53;;;;;;;21.70;49.38;99528.88;4936459;29;20498;-82
2023/05/14 10:29:33;;;;;;;9.70;3.47;;;;;;;21.74;49.11;99532.81;4904395;29;20040;-82
2023/05/14 10:32:03;;;;;;;6.93;3.10;;;;;;;21.75;48.70;99529.16;4901118;29;20054;-81
2023/05/14 10:34:39;;;;;;;5.22;3.08;;;;;;;21.89;48.14;99537.47;4901460;29;20044;-83
2023/05/14 10:37:22;;;;;;;5.72;2.97;;;;;;;21.98;48.00;99531.94;4917179;29;20095;-82
2023/05/14 10:40:09;;;;;;;4.38;2.72;;;;;;;22.13;47.58;99533.88;4902965;29;20032;-85
2023/05/14 10:42:42;;;;;;;7.63;3.30;;;;;;;22.18;47.40;99535.00;4915849;29;20060;-78
2023/05/14 10:45:12;;;;;;;5.70;2.97;;;;;;;22.28;47.17;99539.28;4916181;29;20104;-80
2023/05/14 10:50:52;;;;;;;;;;;;;;;22.43;45.91;99508.31;4881003;29;20124;-82
2023/05/14 10:53:18;;;;;;;4.38;2.60;;;;;;;22.43;45.85;99513.66;4880373;29;19922;-84
2023/05/14 10:55:46;;;;;;;5.72;2.60;;;;;;;22.45;45.41;99508.97;4882967;29;20540;-84
2023/05/14 10:58:41;;;;;;;3.67;2.40;;;;;;;22.42;45.34;99500.53;4880802;29;20076;-83
2023/05/14 11:04:43;;;;;;;3.58;2.10;;;;;;;22.36;44.40;99491.41;4846074;29;20049;-86
2023/05/14 11:07:14;;;;;;;3.58;2.33;;;;;;;22.36;44.29;99502.03;4843876;29;20090;-83
2023/05/14 11:09:43;;;;;;;5.60;2.10;;;;;;;22.29;43.95;99488.59;4827745;29;20124;-81
2023/05/14 11:12:18;;;;;;;3.90;2.17;;;;;;;22.32;43.75;99493.59;4843113;29;20398;-82
2023/05/14 11:18:30;;;;;;;4.07;2.17;;;;;;;22.27;42.79;99506.56;4842780;29;20068;-83
2023/05/14 11:21:03;;;;;;;5.22;2.42;;;;;;;22.34;42.80;99509.38;4821613;29;20136;-82
2023/05/14 11:23:28;;;;;;;5.43;2.13;;;;;;;22.32;42.37;99506.88;4878779;29;20101;-83
2023/05/14 11:26:00;;;;;;;3.78;2.20;;;;;;;22.23;42.08;99494.59;4877965;29;20049;-86
2023/05/14 11:28:30;;;;;;;3.35;1.80;;;;;;;22.18;42.23;99500.44;4877802;29;20505;-83
2023/05/14 11:31:00;;;;;;;5.10;2.20;;;;;;;22.14;42.18;99500.94;4863015;29;20481;-83
2023/05/14 11:33:30;;;;;;;4.15;2.20;;;;;;;22.07;42.50;99481.38;4879747;29;20096;-81
2023/05/14 11:36:05;;;;;;;3.03;2.05;;;;;;;22.00;42.32;99481.25;4898325;29;20049;-85
2023/05/14 11:38:33;;;;;;;3.08;1.98;;;;;;;21.95;42.22;99481.78;4898493;29;20500;-85
2023/05/14 11:41:03;;;;;;;5.18;1.95;;;;;;;21.91;42.29;99487.59;4898527;29;20045;-81
2023/05/14 11:46:55;;;;;;;4.82;2.60;;;;;;;21.85;41.93;99474.00;4898250;29;20132;-83
2023/05/14 11:49:27;;;;;;;5.80;3.40;;;;;;;21.82;42.21;99463.72;4898814;29;20048;-82
2023/05/14 11:52:02;;;;;;;7.43;3.50;;;;;;;21.70;42.15;99454.47;4882908;29;20459;-83
2023/05/14 11:54:29;;;;;;;5.60;2.88;;;;;;;21.65;42.20;99460.28;4902577;29;20044;-84
2023/05/14 11:56:56;;;;;;;4.45;3.00;;;;;;;21.54;42.42;99444.72;4900953;29;20036;-82
2023/05/14 11:59:31;;;;;;;7.23;2.80;;;;;;;21.46;42.80;99442.06;4915824;29;20047;-84
2023/05/14 12:01:59;;;;;;;4.80;2.67;;;;;;;21.38;42.65;99452.69;4900581;29;20138;-84
2023/05/14 12:04:30;;;;;;;4.15;2.35;;;;;;;21.35;43.16;99461.84;4901148;29;20044;-83
2023/05/14 12:06:59;;;;;;;4.93;2.60;;;;;;;21.28;43.30;99456.34;4916828;29;20052;-83
2023/05/14 12:09:49;;;;;;;4.75;2.65;;;;;;;21.26;43.69;99454.88;4900809;29;20175;-83
2023/05/14 12:15:46;;;;;;;4.50;2.42;;;;;;;21.09;43.84;99438.13;4897750;29;20048;-81
2023/05/14 12:18:13;;;;;;;5.22;2.20;;;;;;;21.12;46.53;99446.59;4894905;29;20489;-87
2023/05/14 12:20:45;;;;;;;;;;;;;;;21.29;47.19;99441.28;4891672;29;20053;-85
2023/05/14 12:23:10;;;;;;;7.88;2.47;;;;;;;21.27;47.14;99446.75;4887015;29;19982;-84
2023/05/14 12:25:37;;;;;;;3.67;2.08;;;;;;;21.21;46.57;99459.88;4868345;29;20112;-78
2023/05/14 12:28:15;;;;;;;6.35;2.65;;;;;;;21.42;54.54;99456.66;4883169;29;20436;-81
2023/05/14 12:30:40;;;;;;;3.88;2.15;;;;;;;21.54;49.46;99430.59;4865854;29;20044;-80
2023/05/14 12:33:06;;;;;;;5.38;2.83;;;;;;;21.48;50.50;99418.81;4880690;29;20581;-77